TimeAST,TemperatureF,Dew PointF,Humidity,Sea Level PressureIn,VisibilityMPH,Wind Direction,Wind SpeedMPH,Gust SpeedMPH,PrecipitationIn,Events,Conditions,WindDirDegrees,DateUTC
12:00 AM,80.6,78.8,94,29.92,6.2,East,6.9,-,N/A,,Partly Cloudy,100,2013-10-24 04:00:00
1:00 AM,80.6,77.0,89,29.89,6.2,East,5.8,-,N/A,,Partly Cloudy,100,2013-10-24 05:00:00
2:00 AM,79,77,90,29.89,14,East,5.8,,,,Widespread Dust,100,2013-10-24 06:00:00
2:00 AM,78.8,77.0,94,29.89,6.2,East,5.8,-,N/A,,Partly Cloudy,100,2013-10-24 06:00:00
3:00 AM,78.8,77.0,94,29.89,6.2,East,5.8,-,N/A,,Scattered Clouds,100,2013-10-24 07:00:00
4:00 AM,78.8,77.0,94,29.89,6.2,East,5.8,-,N/A,,Scattered Clouds,90,2013-10-24 08:00:00
5:00 AM,79,77,90,29.90,14,East,8.1,,,,Widespread Dust,100,2013-10-24 09:00:00
5:00 AM,78.8,77.0,94,29.89,6.2,East,8.1,-,N/A,,Scattered Clouds,100,2013-10-24 09:00:00
6:00 AM,80.6,77.0,89,29.92,6.2,East,9.2,-,N/A,,Scattered Clouds,100,2013-10-24 10:00:00
7:00 AM,82.4,77.0,84,29.95,6.2,East,11.5,-,N/A,,Scattered Clouds,100,2013-10-24 11:00:00
8:00 AM,85,77,71,29.97,14,ESE,11.5,,,,Widespread Dust,110,2013-10-24 12:00:00
8:00 AM,86.0,77.0,74,29.95,6.2,ESE,11.5,-,N/A,,Scattered Clouds,110,2013-10-24 12:00:00
9:00 AM,86.0,77.0,74,29.98,6.2,ESE,16.1,-,N/A,,Partly Cloudy,110,2013-10-24 13:00:00
10:00 AM,86.0,77.0,74,29.98,6.2,ESE,16.1,-,N/A,,Mostly Cloudy,120,2013-10-24 14:00:00
11:00 AM,87,78,68,29.97,15,ESE,16.1,,,,Widespread Dust,120,2013-10-24 15:00:00
12:00 PM,87.8,78.8,75,29.95,6.2,ESE,17.3,-,N/A,,Scattered Clouds,110,2013-10-24 16:00:00
1:00 PM,87.8,77.0,70,29.92,6.2,East,17.3,-,N/A,,Scattered Clouds,100,2013-10-24 17:00:00
2:00 PM,87,78,67,29.89,6,ESE,15.0,,,,Scattered Clouds,120,2013-10-24 18:00:00
2:00 PM,87.8,77.0,70,29.89,6.2,ESE,15.0,-,N/A,,Mostly Cloudy,120,2013-10-24 18:00:00
3:00 PM,86.0,77.0,74,29.89,6.2,SE,17.3,-,N/A,,Scattered Clouds,130,2013-10-24 19:00:00
4:00 PM,84.2,77.0,79,29.89,6.2,ESE,20.7,-,N/A,,Partly Cloudy,120,2013-10-24 20:00:00
5:00 PM,84,76,70,29.89,12,ESE,13.8,,,,Widespread Dust,120,2013-10-24 21:00:00
5:00 PM,84.2,75.2,74,29.89,6.2,ESE,13.8,25.3,N/A,,Scattered Clouds,120,2013-10-24 21:00:00
6:00 PM,82.4,77.0,84,29.92,5.0,ESE,12.7,28.8,N/A,Rain,Light Rain Showers,120,2013-10-24 22:00:00
7:00 PM,78.8,75.2,89,29.92,6.2,ESE,11.5,-,N/A,Rain,Light Rain Showers,120,2013-10-24 23:00:00
8:00 PM,79,76,88,29.93,7,East,12.7,,,,Widespread Dust,90,2013-10-25 00:00:00
8:00 PM,78.8,75.2,89,29.92,6.2,East,12.7,-,N/A,,Partly Cloudy,90,2013-10-25 00:00:00
9:00 PM,80.6,75.2,84,29.95,6.2,East,17.3,-,N/A,,Partly Cloudy,90,2013-10-25 01:00:00
10:00 PM,80.6,77.0,89,29.95,6.2,East,16.1,-,N/A,Rain,Light Rain Showers,90,2013-10-25 02:00:00
11:00 PM,79,78,94,29.96,6,ESE,20.7,,,Rain,Light Rain Showers,120,2013-10-25 03:00:00
11:00 PM,78.8,77.0,94,29.95,5.6,ESE,20.7,-,N/A,Rain,Light Rain Showers,120,2013-10-25 03:00:00